Time;durP1;ratioP1;P1;durP2;ratioP2;P2;SDS_P1;SDS_P2;PMS_P1;PMS_P2;Temp;Humidity;BMP_temperature;BMP_pressure;BME280_temperature;BME280_humidity;BME280_pressure;Samples;Min_cycle;Max_cycle;Signal;HPM_P1;HPM_P2
2023/06/08 00:02:13;;;;;;;12.73;9.88;;;18.20;99.90;;;;;;4990743;28;20042;-65
2023/06/08 00:04:40;;;;;;;11.55;10.35;;;18.20;99.90;;;;;;4989522;28;20465;-65
2023/06/08 00:07:10;;;;;;;11.25;10.15;;;18.20;99.90;;;;;;4996030;28;20030;-65
2023/06/08 00:09:37;;;;;;;10.70;9.52;;;18.20;99.90;;;;;;4993571;28;20065;-65
2023/06/08 00:12:03;;;;;;;10.73;9.65;;;18.20;99.90;;;;;;4990803;28;20924;-68
2023/06/08 00:14:29;;;;;;;11.15;9.65;;;18.20;99.90;;;;;;4990857;28;20042;-68
2023/06/08 00:16:55;;;;;;;10.70;9.70;;;18.20;99.90;;;;;;4989215;28;20029;-68
2023/06/08 00:19:22;;;;;;;11.95;10.48;;;18.20;99.90;;;;;;4991521;28;20049;-68
2023/06/08 00:21:48;;;;;;;11.65;10.45;;;18.20;99.90;;;;;;4992537;28;20033;-68
2023/06/08 00:24:17;;;;;;;10.10;9.00;;;18.20;99.90;;;;;;4989638;28;20041;-67
2023/06/08 00:26:42;;;;;;;13.50;9.30;;;18.10;99.90;;;;;;4994471;28;20042;-66
2023/06/08 00:29:08;;;;;;;10.80;8.93;;;18.20;99.90;;;;;;4990430;28;20046;-67
2023/06/08 00:31:33;;;;;;;10.13;9.13;;;18.20;99.90;;;;;;4993596;28;20041;-65
2023/06/08 00:33:59;;;;;;;10.38;9.43;;;18.20;99.90;;;;;;4988101;28;20109;-65
2023/06/08 00:36:25;;;;;;;12.10;9.90;;;18.20;99.90;;;;;;4990678;28;20045;-65
2023/06/08 00:38:51;;;;;;;11.18;10.07;;;18.20;99.90;;;;;;4981297;28;20122;-65
2023/06/08 00:41:16;;;;;;;11.70;10.18;;;18.20;99.90;;;;;;4994559;28;20045;-65
2023/06/08 00:43:45;;;;;;;10.63;9.13;;;18.20;99.90;;;;;;4988936;28;20045;-65
2023/06/08 00:46:13;;;;;;;10.75;9.05;;;18.20;99.90;;;;;;4993895;28;20151;-65
2023/06/08 00:48:40;;;;;;;11.70;8.68;;;18.20;99.90;;;;;;4989055;28;20096;-65
2023/06/08 00:51:07;;;;;;;11.68;8.82;;;18.20;99.90;;;;;;4988779;28;20042;-65
2023/06/08 00:53:36;;;;;;;15.85;9.68;;;18.20;99.90;;;;;;4995250;28;20046;-65
2023/06/08 00:56:03;;;;;;;14.25;9.55;;;18.20;99.90;;;;;;4993028;28;20104;-65
2023/06/08 00:58:29;;;;;;;13.07;9.63;;;18.20;99.90;;;;;;4994705;28;20836;-65
2023/06/08 01:01:03;;;;;;;10.48;8.95;;;18.20;99.90;;;;;;4982968;28;20621;-64
2023/06/08 01:03:35;;;;;;;10.93;9.50;;;18.20;99.90;;;;;;4967867;28;20038;-66
2023/06/08 01:06:08;;;;;;;11.00;9.90;;;18.20;99.90;;;;;;4972813;28;20062;-65
2023/06/08 01:08:39;;;;;;;11.10;9.63;;;18.20;99.90;;;;;;4989842;28;20062;-65
2023/06/08 01:11:11;;;;;;;12.32;9.73;;;18.20;99.90;;;;;;4989929;28;20061;-65
2023/06/08 01:14:00;;;;;;;13.63;8.60;;;18.20;99.90;;;;;;4994740;28;20133;-66
2023/06/08 01:16:32;;;;;;;10.88;8.93;;;18.20;99.90;;;;;;4991876;28;20036;-65
2023/06/08 01:19:01;;;;;;;16.23;9.57;;;18.20;99.90;;;;;;4991245;28;20041;-65
2023/06/08 01:21:46;;;;;;;12.80;8.77;;;18.10;99.90;;;;;;4993790;28;20122;-65
2023/06/08 01:24:23;;;;;;;11.32;9.02;;;18.10;99.90;;;;;;4994644;28;20050;-65
2023/06/08 01:26:51;;;;;;;18.00;10.00;;;18.10;99.90;;;;;;4993578;28;20458;-65
2023/06/08 01:29:21;;;;;;;13.32;9.60;;;18.10;99.90;;;;;;4991157;28;20027;-65
2023/06/08 01:31:47;;;;;;;11.50;9.38;;;18.00;99.90;;;;;;4985192;28;20041;-65
2023/06/08 01:34:14;;;;;;;9.80;8.75;;;18.10;99.90;;;;;;4987424;28;20045;-66
2023/06/08 01:37:17;;;;;;;10.25;9.25;;;18.10;99.90;;;;;;4989553;28;20049;-65
2023/06/08 01:39:55;;;;;;;14.68;9.60;;;18.10;99.90;;;;;;4995977;28;20038;-65
2023/06/08 01:42:23;;;;;;;11.52;9.35;;;18.10;99.90;;;;;;4997185;28;20093;-66
2023/06/08 01:45:11;;;;;;;9.60;8.18;;;18.20;99.90;;;;;;4989993;28;20056;-66
2023/06/08 01:47:45;;;;;;;14.00;9.60;;;18.10;99.90;;;;;;4992551;28;20135;-66
2023/06/08 01:50:11;;;;;;;14.10;9.70;;;18.10;99.90;;;;;;4981902;28;20038;-65
2023/06/08 01:52:39;;;;;;;11.77;10.02;;;18.10;99.90;;;;;;4990315;28;20183;-65
2023/06/08 01:55:24;;;;;;;12.38;10.45;;;18.10;99.90;;;;;;4988802;28;20297;-64
2023/06/08 01:57:50;;;;;;;10.20;9.15;;;18.10;99.90;;;;;;4993669;28;20146;-65
2023/06/08 02:00:17;;;;;;;11.35;8.95;;;18.10;99.90;;;;;;4994538;28;20035;-66
2023/06/08 02:02:44;;;;;;;14.32;9.88;;;18.10;99.90;;;;;;4997188;28;20398;-66
2023/06/08 02:05:11;;;;;;;10.55;8.77;;;18.10;99.90;;;;;;4991314;28;20151;-66
2023/06/08 02:07:37;;;;;;;11.75;7.95;;;18.10;99.90;;;;;;4997262;28;20104;-66
2023/06/08 02:10:05;;;;;;;11.52;8.80;;;18.10;99.90;;;;;;4995173;28;20780;-66
2023/06/08 02:12:31;;;;;;;12.80;8.80;;;18.10;99.90;;;;;;4994004;28;20025;-66
2023/06/08 02:14:56;;;;;;;12.63;8.65;;;18.00;99.90;;;;;;4999699;28;20616;-66
2023/06/08 02:17:33;;;;;;;11.80;8.95;;;18.00;99.90;;;;;;4989509;28;20053;-66
2023/06/08 02:20:00;;;;;;;12.98;9.52;;;18.00;99.90;;;;;;4988249;28;20481;-66
2023/06/08 02:22:28;;;;;;;12.93;8.90;;;18.00;99.90;;;;;;4984547;28;20026;-64
2023/06/08 02:24:54;;;;;;;9.82;8.85;;;18.00;99.90;;;;;;4990269;28;20042;-65
2023/06/08 02:27:20;;;;;;;11.95;9.18;;;18.10;99.90;;;;;;4989251;28;20034;-65
2023/06/08 02:29:45;;;;;;;10.15;9.15;;;18.00;99.90;;;;;;4992697;28;20099;-65
2023/06/08 02:32:11;;;;;;;10.35;9.27;;;18.00;99.90;;;;;;4986916;28;20872;-64
2023/06/08 02:34:38;;;;;;;10.73;9.57;;;18.10;99.90;;;;;;4988329;28;20087;-65
2023/06/08 02:37:04;;;;;;;10.38;9.00;;;18.10;99.90;;;;;;4987070;28;20037;-64
2023/06/08 02:39:30;;;;;;;11.95;9.23;;;18.00;99.90;;;;;;4989595;28;20046;-64
2023/06/08 02:41:56;;;;;;;12.00;9.60;;;18.00;99.90;;;;;;4991174;28;20885;-64
2023/06/08 02:44:22;;;;;;;13.52;10.10;;;18.00;99.90;;;;;;4989661;28;20034;-64
2023/06/08 02:46:47;;;;;;;12.15;9.48;;;17.90;99.90;;;;;;4983523;28;20054;-64
2023/06/08 02:49:13;;;;;;;9.68;8.77;;;17.90;99.90;;;;;;4989695;28;20300;-65
2023/06/08 02:51:39;;;;;;;11.52;8.73;;;17.90;99.90;;;;;;4990110;28;20042;-65
2023/06/08 02:54:05;;;;;;;12.27;8.98;;;17.90;99.90;;;;;;4988661;28;20042;-64
2023/06/08 02:56:31;;;;;;;11.70;9.10;;;17.90;99.90;;;;;;4995671;28;20036;-65
2023/06/08 02:58:57;;;;;;;12.95;8.50;;;17.90;99.90;;;;;;4992235;28;20034;-65
2023/06/08 03:01:23;;;;;;;13.40;9.32;;;17.90;99.90;;;;;;4996595;28;20022;-65
2023/06/08 03:03:53;;;;;;;11.00;8.68;;;17.90;99.90;;;;;;4975024;28;20072;-65
2023/06/08 03:06:19;;;;;;;12.15;9.55;;;18.00;99.90;;;;;;4990710;28;20045;-65
2023/06/08 03:08:46;;;;;;;14.32;9.38;;;18.00;99.90;;;;;;4997760;28;20096;-65
2023/06/08 03:11:13;;;;;;;10.57;9.57;;;18.00;99.90;;;;;;4992420;28;20379;-65
2023/06/08 03:13:38;;;;;;;10.43;9.20;;;17.90;99.90;;;;;;4995813;28;20273;-65
2023/06/08 03:16:04;;;;;;;9.90;8.57;;;17.90;99.90;;;;;;4996915;28;20516;-65
2023/06/08 03:18:30;;;;;;;12.07;8.80;;;18.00;99.90;;;;;;4994089;28;20474;-65
2023/06/08 03:20:57;;;;;;;13.07;8.77;;;18.00;99.90;;;;;;4990249;28;20045;-65
2023/06/08 03:23:22;;;;;;;11.85;8.82;;;18.00;99.90;;;;;;4991112;28;20042;-64
2023/06/08 03:25:49;;;;;;;11.70;8.75;;;18.00;99.90;;;;;;4994812;28;20052;-64
2023/06/08 03:28:18;;;;;;;9.82;8.82;;;18.00;99.90;;;;;;4990956;28;20038;-65
2023/06/08 03:30:44;;;;;;;11.05;9.25;;;18.00;99.90;;;;;;4990611;28;20096;-64
2023/06/08 03:33:11;;;;;;;12.55;8.40;;;18.10;99.90;;;;;;4990410;28;20609;-64
2023/06/08 03:35:37;;;;;;;12.88;9.95;;;18.00;99.90;;;;;;4989711;28;20046;-64
2023/06/08 03:38:03;;;;;;;12.07;9.10;;;18.00;99.90;;;;;;4992417;28;20573;-65
2023/06/08 03:40:29;;;;;;;12.50;9.45;;;18.10;99.90;;;;;;4984880;28;20752;-64
2023/06/08 03:42:54;;;;;;;10.55;9.40;;;18.10;99.90;;;;;;4994804;28;20573;-64
2023/06/08 03:45:20;;;;;;;10.77;9.77;;;18.10;99.90;;;;;;4990975;28;20050;-64
2023/06/08 03:47:46;;;;;;;11.77;10.25;;;18.10;99.90;;;;;;4989306;28;20056;-65
2023/06/08 03:50:12;;;;;;;14.75;10.77;;;18.10;99.90;;;;;;4984893;28;20030;-64
2023/06/08 03:52:38;;;;;;;11.02;10.02;;;18.10;99.90;;;;;;4988767;28;20584;-64
2023/06/08 03:55:08;;;;;;;13.02;9.75;;;18.10;99.90;;;;;;4981406;28;20510;-65
2023/06/08 03:57:34;;;;;;;12.35;10.00;;;18.10;99.90;;;;;;4989699;28;20053;-65
2023/06/08 04:00:00;;;;;;;12.15;10.38;;;18.10;99.90;;;;;;4986997;28;20392;-64
2023/06/08 04:02:25;;;;;;;13.73;10.18;;;18.10;99.90;;;;;;4989817;28;20037;-64
2023/06/08 04:04:53;;;;;;;11.43;10.32;;;18.10;99.90;;;;;;4987246;28;20046;-65
2023/06/08 04:07:20;;;;;;;9.90;9.00;;;18.10;99.90;;;;;;4989683;28;20057;-65
2023/06/08 04:09:47;;;;;;;12.00;10.60;;;18.10;99.90;;;;;;4988953;28;20042;-64
2023/06/08 04:12:12;;;;;;;11.18;10.00;;;18.10;99.90;;;;;;4981766;28;20048;-64
2023/06/08 04:14:38;;;;;;;13.02;10.75;;;18.10;99.90;;;;;;4981421;28;20094;-65
2023/06/08 04:17:04;;;;;;;11.25;10.20;;;18.10;99.90;;;;;;4981257;28;20414;-64
2023/06/08 04:19:30;;;;;;;12.80;9.90;;;18.20;99.90;;;;;;4981843;28;20030;-65
2023/06/08 04:21:56;;;;;;;15.10;9.82;;;18.20;99.90;;;;;;4985582;28;20046;-64
2023/06/08 04:24:30;;;;;;;11.63;10.35;;;18.20;99.90;;;;;;4989271;28;20022;-64
2023/06/08 04:26:57;;;;;;;12.63;10.07;;;18.30;99.90;;;;;;4992153;28;20113;-64
2023/06/08 04:29:22;;;;;;;13.65;9.90;;;18.30;99.90;;;;;;4988997;28;20688;-65
2023/06/08 04:31:48;;;;;;;14.55;10.90;;;18.40;99.90;;;;;;4973898;28;20038;-66
2023/06/08 04:34:13;;;;;;;12.68;11.27;;;18.40;99.90;;;;;;4992665;28;20030;-66
2023/06/08 04:36:43;;;;;;;14.95;11.90;;;18.40;99.90;;;;;;4984612;28;20456;-66
2023/06/08 04:39:09;;;;;;;13.07;11.77;;;18.40;99.90;;;;;;4997500;28;20042;-66
2023/06/08 04:41:36;;;;;;;12.82;11.70;;;18.40;99.90;;;;;;4986648;28;20159;-66
2023/06/08 04:44:02;;;;;;;14.23;12.65;;;18.40;99.90;;;;;;4989349;28;20117;-67
2023/06/08 04:46:30;;;;;;;14.00;12.55;;;18.40;99.90;;;;;;4984162;28;20038;-66
2023/06/08 04:48:59;;;;;;;12.82;10.73;;;18.50;99.90;;;;;;4991185;28;20097;-65
2023/06/08 04:51:29;;;;;;;10.85;9.75;;;18.50;99.90;;;;;;4974807;28;20045;-65
2023/06/08 04:54:03;;;;;;;12.27;10.30;;;18.50;99.90;;;;;;4989274;28;20137;-66
2023/06/08 04:56:33;;;;;;;12.15;10.70;;;18.60;99.90;;;;;;4987113;28;20551;-65
2023/06/08 04:58:59;;;;;;;10.57;9.68;;;18.60;99.90;;;;;;4989187;28;20066;-64
2023/06/08 05:01:25;;;;;;;10.77;9.68;;;18.60;99.90;;;;;;4989220;28;20066;-65
2023/06/08 05:03:51;;;;;;;11.48;10.27;;;18.60;99.90;;;;;;4982794;28;20215;-65
2023/06/08 05:06:17;;;;;;;11.02;10.02;;;18.70;99.90;;;;;;4989115;28;20750;-66
2023/06/08 05:08:42;;;;;;;11.52;10.35;;;18.70;99.90;;;;;;4982909;28;20034;-66
2023/06/08 05:11:08;;;;;;;10.65;9.50;;;18.70;99.90;;;;;;4991630;28;20502;-65
2023/06/08 05:13:34;;;;;;;11.77;10.57;;;18.70;99.90;;;;;;4995696;28;20073;-66
2023/06/08 05:16:02;;;;;;;11.65;10.43;;;18.80;99.90;;;;;;4998314;28;20034;-65
2023/06/08 05:18:28;;;;;;;10.82;9.73;;;18.80;99.90;;;;;;4992588;28;20041;-66
2023/06/08 05:20:54;;;;;;;10.43;9.52;;;18.90;99.90;;;;;;4993163;28;20137;-68
2023/06/08 05:23:20;;;;;;;11.85;9.70;;;18.90;99.90;;;;;;4981814;28;20034;-66
2023/06/08 05:25:45;;;;;;;10.88;9.85;;;18.90;99.90;;;;;;4987403;28;20907;-65
2023/06/08 05:28:11;;;;;;;11.02;10.02;;;19.00;99.90;;;;;;4985089;28;20046;-66
2023/06/08 05:30:37;;;;;;;14.25;10.00;;;19.00;99.90;;;;;;4984519;28;20038;-66
2023/06/08 05:33:02;;;;;;;10.52;9.48;;;19.00;99.90;;;;;;4986259;28;20550;-65
2023/06/08 05:35:28;;;;;;;11.18;9.60;;;19.00;99.90;;;;;;4987716;28;20030;-65
2023/06/08 05:37:54;;;;;;;11.50;10.00;;;19.00;99.90;;;;;;4984151;28;20115;-66
2023/06/08 05:40:20;;;;;;;12.20;9.50;;;19.10;99.90;;;;;;4978795;28;20042;-66
2023/06/08 05:42:46;;;;;;;10.32;9.27;;;19.10;99.90;;;;;;4986326;28;20469;-65
2023/06/08 05:45:12;;;;;;;10.55;9.40;;;19.10;99.90;;;;;;4981628;28;20136;-65
2023/06/08 05:47:38;;;;;;;9.80;8.85;;;19.10;99.90;;;;;;4994495;28;21028;-65
2023/06/08 05:50:04;;;;;;;10.32;9.32;;;19.10;99.90;;;;;;4994076;28;20052;-67
2023/06/08 05:52:30;;;;;;;10.70;9.45;;;19.10;99.90;;;;;;4994390;28;20769;-64
2023/06/08 05:54:56;;;;;;;10.98;9.98;;;19.10;99.90;;;;;;4981033;28;20037;-66
2023/06/08 05:57:22;;;;;;;10.98;9.27;;;19.10;99.90;;;;;;4995783;28;21836;-65
2023/06/08 05:59:47;;;;;;;10.02;9.02;;;19.10;99.90;;;;;;5000788;28;20045;-65
2023/06/08 06:02:13;;;;;;;10.90;9.90;;;19.10;99.90;;;;;;4997386;28;20766;-65
2023/06/08 06:04:40;;;;;;;9.95;9.07;;;19.10;99.90;;;;;;4997974;28;20091;-65
2023/06/08 06:07:06;;;;;;;10.32;9.32;;;19.10;99.90;;;;;;4999531;28;20042;-65
2023/06/08 06:09:32;;;;;;;11.40;10.20;;;19.10;99.90;;;;;;4996405;28;20052;-65
2023/06/08 06:11:57;;;;;;;10.85;9.85;;;19.10;99.90;;;;;;5000720;28;20053;-65
2023/06/08 06:14:23;;;;;;;11.10;10.10;;;19.20;99.90;;;;;;4994106;28;20133;-65
2023/06/08 06:16:48;;;;;;;11.82;10.52;;;19.20;99.90;;;;;;4993124;28;20029;-65
2023/06/08 06:19:14;;;;;;;13.20;11.38;;;19.20;99.90;;;;;;4989007;28;20121;-65
2023/06/08 06:21:40;;;;;;;12.90;11.60;;;19.30;99.90;;;;;;4990236;28;20489;-65
2023/06/08 06:24:06;;;;;;;12.63;11.50;;;19.30;99.90;;;;;;4995842;28;20066;-65
2023/06/08 06:26:32;;;;;;;13.25;12.07;;;19.30;99.90;;;;;;5004104;28;20062;-65
2023/06/08 06:28:57;;;;;;;14.10;12.77;;;19.30;99.90;;;;;;4997150;28;20469;-65
2023/06/08 06:31:23;;;;;;;15.77;12.98;;;19.40;99.90;;;;;;4998306;28;20068;-65
2023/06/08 06:33:49;;;;;;;14.55;13.25;;;19.40;99.90;;;;;;4993889;28;20471;-65
2023/06/08 06:36:15;;;;;;;14.40;13.00;;;19.40;99.90;;;;;;4996818;28;20089;-65
2023/06/08 06:38:40;;;;;;;15.25;13.80;;;19.50;99.90;;;;;;4999712;28;20847;-65
2023/06/08 06:41:06;;;;;;;16.10;14.52;;;19.50;99.90;;;;;;4993568;28;20412;-65
2023/06/08 06:43:32;;;;;;;14.80;13.40;;;19.50;99.90;;;;;;5000736;28;20595;-65
2023/06/08 06:45:58;;;;;;;16.13;14.52;;;19.50;99.90;;;;;;4996224;28;20430;-65
2023/06/08 06:48:24;;;;;;;15.10;13.80;;;19.50;99.90;;;;;;4993497;28;20060;-65
2023/06/08 06:50:49;;;;;;;15.57;14.05;;;19.50;99.90;;;;;;4974341;28;20068;-65
2023/06/08 06:53:15;;;;;;;15.50;13.98;;;19.50;99.90;;;;;;4997605;28;20033;-65
2023/06/08 06:55:41;;;;;;;14.70;13.40;;;19.60;99.90;;;;;;4994009;28;20053;-65
2023/06/08 06:58:07;;;;;;;15.52;13.93;;;19.60;99.90;;;;;;4992998;28;20327;-65
2023/06/08 07:00:37;;;;;;;14.48;13.13;;;19.60;99.90;;;;;;4999099;28;20394;-65
2023/06/08 07:03:04;;;;;;;16.00;14.40;;;19.60;99.90;;;;;;4990240;28;20046;-65
2023/06/08 07:05:30;;;;;;;15.18;13.85;;;19.70;99.90;;;;;;4986573;28;20058;-65
2023/06/08 07:07:56;;;;;;;15.43;14.02;;;19.70;99.90;;;;;;4996800;28;20022;-65
2023/06/08 07:10:22;;;;;;;14.63;13.27;;;19.80;99.90;;;;;;4998984;28;20049;-65
2023/06/08 07:12:47;;;;;;;15.70;14.10;;;19.80;99.90;;;;;;4994262;28;20040;-65
2023/06/08 07:15:14;;;;;;;14.93;13.60;;;19.80;99.90;;;;;;4993278;28;20058;-65
2023/06/08 07:17:40;;;;;;;14.98;13.57;;;19.80;99.90;;;;;;4994400;28;20052;-65
2023/06/08 07:20:07;;;;;;;14.52;13.30;;;19.90;99.90;;;;;;4992300;28;20125;-65
2023/06/08 07:22:33;;;;;;;15.32;13.75;;;20.00;99.90;;;;;;4996432;28;20022;-65
2023/06/08 07:24:58;;;;;;;16.23;14.70;;;20.10;99.90;;;;;;4985751;28;20054;-65
2023/06/08 07:27:24;;;;;;;17.02;14.98;;;20.20;99.90;;;;;;4985546;28;20040;-65
2023/06/08 07:29:51;;;;;;;16.35;14.93;;;20.20;99.90;;;;;;4987923;28;20018;-65
2023/06/08 07:32:17;;;;;;;15.95;14.45;;;20.30;99.90;;;;;;4993730;28;20077;-65
2023/06/08 07:34:43;;;;;;;17.35;15.52;;;20.30;99.90;;;;;;4992786;28;20145;-66
2023/06/08 07:37:08;;;;;;;17.38;15.77;;;20.40;99.90;;;;;;4994084;28;20482;-65
2023/06/08 07:39:34;;;;;;;18.50;16.65;;;20.40;99.90;;;;;;4977020;28;20122;-65
2023/06/08 07:42:00;;;;;;;17.27;15.27;;;20.30;99.90;;;;;;4987065;28;20050;-61
2023/06/08 07:44:25;;;;;;;16.23;14.73;;;20.40;99.90;;;;;;4989405;28;20672;-62
2023/06/08 07:46:51;;;;;;;17.58;15.98;;;20.30;99.90;;;;;;4988345;28;20042;-62
2023/06/08 07:49:17;;;;;;;18.95;17.17;;;20.40;99.90;;;;;;4994160;28;20038;-62
2023/06/08 07:51:43;;;;;;;17.80;16.10;;;20.40;99.90;;;;;;4989270;28;20038;-62
2023/06/08 07:54:10;;;;;;;17.73;16.13;;;20.40;99.90;;;;;;4986519;28;20029;-62
2023/06/08 07:56:36;;;;;;;18.13;16.63;;;20.50;99.90;;;;;;4993782;28;20545;-62
2023/06/08 07:59:02;;;;;;;18.70;17.02;;;20.50;99.90;;;;;;4989660;28;20042;-62
2023/06/08 08:01:27;;;;;;;16.85;15.25;;;20.60;99.90;;;;;;4994615;28;20046;-62
2023/06/08 08:03:53;;;;;;;17.65;16.05;;;20.60;99.90;;;;;;4989794;28;20046;-62
2023/06/08 08:06:19;;;;;;;18.10;16.40;;;20.60;99.90;;;;;;4971091;28;20054;-66
2023/06/08 08:08:44;;;;;;;18.30;16.50;;;20.70;99.90;;;;;;4973844;28;20038;-65
2023/06/08 08:11:10;;;;;;;18.27;16.67;;;20.70;99.90;;;;;;4991727;28;20456;-65
2023/06/08 08:13:36;;;;;;;19.02;17.27;;;20.70;99.90;;;;;;4992161;28;20121;-65
2023/06/08 08:16:01;;;;;;;19.45;17.58;;;20.70;99.90;;;;;;4994686;28;20759;-65
2023/06/08 08:18:27;;;;;;;18.20;16.70;;;20.70;99.90;;;;;;4997222;28;20073;-65
2023/06/08 08:20:52;;;;;;;18.30;16.70;;;20.80;99.90;;;;;;5000767;28;20072;-65
2023/06/08 08:23:18;;;;;;;18.63;17.05;;;20.80;99.90;;;;;;4999675;28;20042;-65
2023/06/08 08:25:44;;;;;;;16.05;14.55;;;20.90;99.90;;;;;;4992168;28;20129;-66
2023/06/08 08:28:09;;;;;;;16.23;14.85;;;20.90;99.90;;;;;;4995210;28;20044;-66
2023/06/08 08:30:35;;;;;;;18.00;16.30;;;20.90;99.90;;;;;;4996347;28;20129;-66
2023/06/08 08:33:01;;;;;;;16.50;14.90;;;20.90;99.90;;;;;;4996306;28;20038;-66
2023/06/08 08:35:29;;;;;;;17.35;15.85;;;20.80;99.90;;;;;;4989815;28;20030;-66
2023/06/08 08:37:56;;;;;;;16.33;14.93;;;20.90;99.90;;;;;;4988146;28;20046;-66
2023/06/08 08:40:23;;;;;;;16.58;15.20;;;20.90;99.90;;;;;;4995367;28;20083;-66
2023/06/08 08:42:56;;;;;;;15.88;14.38;;;21.00;99.90;;;;;;4994277;28;20482;-66
2023/06/08 08:45:27;;;;;;;14.68;13.38;;;21.00;99.90;;;;;;4998954;28;20049;-66
2023/06/08 08:47:53;;;;;;;14.10;12.90;;;21.00;99.90;;;;;;4998919;28;20054;-66
2023/06/08 08:50:19;;;;;;;14.93;13.63;;;21.00;99.90;;;;;;5001005;28;20042;-66
2023/06/08 08:52:46;;;;;;;13.93;12.77;;;21.00;99.90;;;;;;5000318;28;20874;-66
2023/06/08 08:55:12;;;;;;;13.88;12.57;;;21.00;99.90;;;;;;4994742;28;20038;-66
2023/06/08 08:57:37;;;;;;;14.75;13.45;;;21.10;99.90;;;;;;4995326;28;20030;-66
2023/06/08 09:00:08;;;;;;;16.23;14.68;;;21.10;99.90;;;;;;4998723;28;20512;-66
2023/06/08 09:02:36;;;;;;;14.93;13.68;;;21.20;99.90;;;;;;4996267;28;20030;-66
2023/06/08 09:05:05;;;;;;;15.07;13.77;;;21.20;99.90;;;;;;5001497;28;20549;-66
2023/06/08 09:07:31;;;;;;;14.68;13.38;;;21.20;99.90;;;;;;5000099;28;20038;-66
2023/06/08 09:10:15;;;;;;;14.65;13.35;;;21.30;99.90;;;;;;5001378;28;20104;-66
2023/06/08 09:12:43;;;;;;;12.45;11.45;;;21.40;99.90;;;;;;4990996;28;20077;-66
2023/06/08 09:15:11;;;;;;;13.45;12.20;;;21.40;99.90;;;;;;4989247;28;20032;-66
2023/06/08 09:17:38;;;;;;;14.38;13.07;;;21.30;99.90;;;;;;4999241;28;20034;-66
2023/06/08 09:20:08;;;;;;;22.98;13.48;;;21.20;99.90;;;;;;4975816;28;20029;-66
2023/06/08 09:22:35;;;;;;;14.20;12.80;;;21.20;99.90;;;;;;4991628;28;20042;-66
2023/06/08 09:25:02;;;;;;;14.43;13.23;;;21.30;99.90;;;;;;4990678;28;20065;-66
2023/06/08 09:27:28;;;;;;;14.48;13.27;;;21.40;99.90;;;;;;4997248;28;20365;-66
2023/06/08 09:29:57;;;;;;;14.00;12.65;;;21.40;99.90;;;;;;4984273;28;20041;-66
2023/06/08 09:32:31;;;;;;;15.68;14.27;;;21.50;99.90;;;;;;4998925;28;20584;-66
2023/06/08 09:35:01;;;;;;;13.82;12.63;;;21.60;99.90;;;;;;5002650;28;20030;-66
2023/06/08 09:37:31;;;;;;;13.20;12.15;;;21.60;99.90;;;;;;4997638;28;20392;-67
2023/06/08 09:39:58;;;;;;;14.60;13.32;;;21.70;99.90;;;;;;4983163;28;20044;-67
2023/06/08 09:42:42;;;;;;;14.45;13.30;;;21.70;99.90;;;;;;4997789;28;20243;-67
2023/06/08 09:45:11;;;;;;;13.88;12.68;;;21.80;99.90;;;;;;4994205;28;20111;-66
2023/06/08 09:47:37;;;;;;;14.93;13.73;;;21.70;99.90;;;;;;4994838;28;20053;-66
2023/06/08 09:50:06;;;;;;;13.85;12.73;;;21.70;99.90;;;;;;4983813;28;20041;-66
2023/06/08 09:52:33;;;;;;;15.55;14.15;;;21.80;99.90;;;;;;4997285;28;20552;-66
2023/06/08 09:54:59;;;;;;;15.80;13.95;;;21.70;99.90;;;;;;4996986;28;20064;-66
2023/06/08 09:57:27;;;;;;;14.77;13.48;;;21.70;99.90;;;;;;5000171;28;20108;-66
2023/06/08 10:00:08;;;;;;;14.27;13.10;;;21.80;99.90;;;;;;4998863;28;20026;-65
2023/06/08 10:02:38;;;;;;;15.23;13.93;;;21.80;99.90;;;;;;4998298;28;20065;-65
2023/06/08 10:05:15;;;;;;;15.05;13.77;;;21.90;99.90;;;;;;4999644;28;20034;-65
2023/06/08 10:07:44;;;;;;;15.80;14.50;;;21.80;99.90;;;;;;4979972;28;20050;-66
2023/06/08 10:10:21;;;;;;;16.48;15.18;;;21.90;99.90;;;;;;4998775;28;20034;-66
2023/06/08 10:12:48;;;;;;;13.93;12.82;;;22.00;99.90;;;;;;5000787;28;20143;-66
2023/06/08 10:15:14;;;;;;;14.93;13.68;;;22.10;99.90;;;;;;5005332;28;20180;-65
2023/06/08 10:17:42;;;;;;;14.35;13.05;;;22.10;99.90;;;;;;4999011;28;20045;-66
2023/06/08 10:20:12;;;;;;;13.98;12.88;;;22.20;99.90;;;;;;5001891;28;20041;-66
2023/06/08 10:22:39;;;;;;;13.88;12.68;;;22.20;99.90;;;;;;4997297;28;20054;-66
2023/06/08 10:25:06;;;;;;;13.93;12.82;;;22.10;99.90;;;;;;4993524;28;20988;-67
2023/06/08 10:27:35;;;;;;;15.60;14.10;;;22.00;99.90;;;;;;5003594;28;20050;-67
2023/06/08 10:30:04;;;;;;;15.38;14.18;;;22.00;99.90;;;;;;4999753;28;20033;-67
2023/06/08 10:32:39;;;;;;;15.30;13.93;;;22.00;99.90;;;;;;5002076;28;20045;-66
2023/06/08 10:35:06;;;;;;;14.05;12.95;;;22.00;99.90;;;;;;4998753;28;20029;-66
2023/06/08 10:37:34;;;;;;;14.73;13.52;;;22.10;99.90;;;;;;4997783;28;20096;-67
2023/06/08 10:40:06;;;;;;;14.73;13.45;;;22.10;99.90;;;;;;4998502;28;20053;-66
2023/06/08 10:42:32;;;;;;;15.13;13.82;;;22.20;99.90;;;;;;4994057;28;20049;-66
2023/06/08 10:45:00;;;;;;;15.48;14.02;;;22.20;99.90;;;;;;4998795;28;20035;-67
2023/06/08 10:47:26;;;;;;;13.93;12.82;;;22.20;99.90;;;;;;4998747;28;20059;-66
2023/06/08 10:50:08;;;;;;;15.07;13.70;;;22.20;99.90;;;;;;4986435;28;20034;-66
2023/06/08 10:52:46;;;;;;;15.10;13.80;;;22.10;99.90;;;;;;4989742;28;20051;-66
2023/06/08 10:55:14;;;;;;;15.90;14.50;;;22.20;99.90;;;;;;4994046;28;20049;-66
2023/06/08 10:57:52;;;;;;;14.48;13.23;;;22.20;99.90;;;;;;4997804;28;21561;-66
2023/06/08 11:00:28;;;;;;;14.55;13.27;;;22.20;99.90;;;;;;4983168;28;20042;-67
2023/06/08 11:03:18;;;;;;;13.95;12.65;;;22.20;99.90;;;;;;4982884;28;20052;-66
2023/06/08 11:05:48;;;;;;;10.73;9.82;;;22.20;99.90;;;;;;4982936;28;20049;-67
2023/06/08 11:08:14;;;;;;;7.75;7.05;;;22.10;99.90;;;;;;4979296;28;20340;-67
2023/06/08 11:10:40;;;;;;;9.02;8.23;;;22.00;99.90;;;;;;4996862;28;20037;-67
2023/06/08 11:13:07;;;;;;;9.77;8.90;;;22.00;99.90;;;;;;4996584;28;20192;-67
2023/06/08 11:15:37;;;;;;;9.32;8.18;;;21.90;99.90;;;;;;4981321;28;20061;-66
2023/06/08 11:18:04;;;;;;;10.20;9.40;;;21.80;99.90;;;;;;4988613;28;20045;-67
2023/06/08 11:20:30;;;;;;;12.05;10.95;;;21.70;99.90;;;;;;4995360;28;20033;-67
2023/06/08 11:22:56;;;;;;;10.10;9.20;;;21.60;99.90;;;;;;4979749;28;20608;-67
2023/06/08 11:25:23;;;;;;;7.63;6.93;;;21.60;99.90;;;;;;4977945;28;20050;-67
2023/06/08 11:27:53;;;;;;;7.55;6.95;;;21.60;99.90;;;;;;4988157;28;20034;-67
2023/06/08 11:30:20;;;;;;;9.07;8.18;;;21.70;99.90;;;;;;4969401;28;20494;-67
2023/06/08 11:32:48;;;;;;;8.98;8.10;;;21.70;99.90;;;;;;4969772;28;20046;-67
2023/06/08 11:35:14;;;;;;;9.27;8.48;;;21.70;99.90;;;;;;4984994;28;20042;-67
2023/06/08 11:37:43;;;;;;;9.65;8.75;;;21.80;99.90;;;;;;4992588;28;20050;-67
2023/06/08 11:40:14;;;;;;;8.80;8.10;;;22.00;99.90;;;;;;4996470;28;20038;-67
2023/06/08 11:42:41;;;;;;;9.50;8.60;;;22.20;99.90;;;;;;4994879;28;20085;-67
2023/06/08 11:45:09;;;;;;;8.25;7.55;;;22.30;99.90;;;;;;4992189;28;20037;-66
2023/06/08 11:47:35;;;;;;;9.48;8.57;;;22.30;99.90;;;;;;4993426;28;20045;-68
2023/06/08 11:50:03;;;;;;;9.48;8.63;;;22.40;99.90;;;;;;4994158;28;20133;-67
2023/06/08 11:52:35;;;;;;;9.52;8.70;;;22.60;99.90;;;;;;4987552;28;20164;-68
2023/06/08 11:55:15;;;;;;;9.70;8.40;;;22.70;99.90;;;;;;4984795;28;20042;-68
2023/06/08 11:57:47;;;;;;;8.45;7.75;;;22.80;99.90;;;;;;4991032;28;20501;-67
2023/06/08 12:00:21;;;;;;;9.18;8.40;;;22.90;99.90;;;;;;4985854;28;20040;-67
2023/06/08 12:02:51;;;;;;;7.53;6.93;;;23.00;99.90;;;;;;4979217;28;21315;-67
2023/06/08 12:05:18;;;;;;;8.63;7.85;;;22.90;99.90;;;;;;4976674;28;20507;-67
2023/06/08 12:07:58;;;;;;;8.65;7.97;;;22.70;99.90;;;;;;4978421;28;20030;-66
2023/06/08 12:10:35;;;;;;;8.98;8.27;;;22.70;99.90;;;;;;4978240;28;20717;-67
2023/06/08 12:13:06;;;;;;;10.25;9.43;;;22.70;99.90;;;;;;4977681;28;20041;-66
2023/06/08 12:15:47;;;;;;;12.07;11.07;;;22.80;99.90;;;;;;4985433;28;20779;-66
2023/06/08 12:18:16;;;;;;;12.50;11.50;;;22.80;99.90;;;;;;4990568;28;20036;-66
2023/06/08 12:20:42;;;;;;;13.07;11.88;;;22.80;99.90;;;;;;4994164;28;20821;-66
2023/06/08 12:23:08;;;;;;;11.15;9.70;;;22.70;99.90;;;;;;4994341;28;20042;-65
2023/06/08 12:25:35;;;;;;;9.60;8.57;;;22.60;99.90;;;;;;4993232;28;20351;-65
2023/06/08 12:28:01;;;;;;;8.70;8.00;;;22.50;99.90;;;;;;4991559;28;20092;-66
2023/06/08 12:30:27;;;;;;;8.98;8.15;;;22.40;99.90;;;;;;4987397;28;20561;-64
2023/06/08 12:32:54;;;;;;;9.80;9.00;;;22.30;99.90;;;;;;5002651;28;20034;-65
2023/06/08 12:35:24;;;;;;;9.30;8.50;;;22.20;99.90;;;;;;5003408;28;20129;-65
2023/06/08 12:37:50;;;;;;;8.07;7.38;;;22.20;99.90;;;;;;4998099;28;20116;-65